map of CDG home
CDG - Airport
Location
City:  Paris, Īle-de-France, France
Near (Alt.):Roissy-en-France
Name:Charles de Gaulle
Old (Alt.):Roissy
ICAO:LFPG
IATA:CDG

Details
Type:Airport (Aerodrome, Airfield)
Use:Public/Civil, International (customs port of entry)
Latitude:49°00'35"N (49.009722)
Longitude:2°32'52"E (2.547778)
Elevation:392 ft (119 m)
Variation:0.52°E (WMM2015 magnetic declination)
0.13° annual change
Runways:4
Longest:13829 × 148 ft (4215 × 45 m), paved

Time
Time Zone:UTC+1 (DST+2)
Local Time:

Weather
METAR:LFPG 221400Z 01006KT 9000 NSC 04/M04 Q1025 NOSIG
TAF:LFPG 221100Z 2212/2318 01005KT 6000 NSC PROB40
TEMPO 2307/2309 3000 BR BKN003 TX04/2214Z TNM04/2307Z

Related Locations
Nearby:
Farthest:CHT: 12068 mi / 19421 km
Waitangi [Tuuta], CIT, NZ

Find:

   beyond  
but within

Other Information
Maps:
NOTAMs:
Links:
Sources:

  
flag of France
flag of Īle-de-France
flag of Paris
  

Sectional Chart

Flight Planning
at skyvector.com

Satellite Image

Google Maps Satellite view

 

Copyright © 2004-2017 Karl L. Swartz. All rights reserved.
The Great Circle Mapper name and logo are trademarks of the Great Circle Mapper.
All other trademarks mentioned herein belong to their respective owners.
Please see credits for attibutions and further copyright information.

  Follow gcmap on Facebook Follow gcmap on Twitter Follow gcmap on Google+ GCmap on LinkedIn

hCard Microformat

Geo Microformat